sensor_id;sensor_type;location;lat;lon;timestamp;pressure;altitude;pressure_sealevel;temperature;humidity
56894;BME280;43392;50.078;13.704;2023-05-25T00:00:09;97592.78;;;8.81;71.73
56894;BME280;43392;50.078;13.704;2023-05-25T00:02:35;97603.91;;;8.73;72.08
56894;BME280;43392;50.078;13.704;2023-05-25T00:05:02;97585.72;;;8.75;71.82
56894;BME280;43392;50.078;13.704;2023-05-25T00:07:29;97595.19;;;8.82;71.87
56894;BME280;43392;50.078;13.704;2023-05-25T00:09:56;97588.06;;;8.88;71.72
56894;BME280;43392;50.078;13.704;2023-05-25T00:12:22;97587.00;;;8.89;71.73
56894;BME280;43392;50.078;13.704;2023-05-25T00:14:49;97585.44;;;8.93;71.28
56894;BME280;43392;50.078;13.704;2023-05-25T00:17:17;97592.16;;;8.95;71.09
56894;BME280;43392;50.078;13.704;2023-05-25T00:19:44;97575.28;;;8.95;71.25
56894;BME280;43392;50.078;13.704;2023-05-25T00:22:11;97584.13;;;8.95;70.90
56894;BME280;43392;50.078;13.704;2023-05-25T00:24:38;97576.03;;;8.90;70.89
56894;BME280;43392;50.078;13.704;2023-05-25T00:27:05;97573.56;;;8.84;70.89
56894;BME280;43392;50.078;13.704;2023-05-25T00:29:32;97574.56;;;8.78;71.03
56894;BME280;43392;50.078;13.704;2023-05-25T00:31:59;97562.75;;;8.74;71.67
56894;BME280;43392;50.078;13.704;2023-05-25T00:34:27;97559.00;;;8.75;71.72
56894;BME280;43392;50.078;13.704;2023-05-25T00:36:54;97573.72;;;8.77;71.64
56894;BME280;43392;50.078;13.704;2023-05-25T00:39:20;97564.94;;;8.77;71.62
56894;BME280;43392;50.078;13.704;2023-05-25T00:41:48;97563.03;;;8.77;71.44
56894;BME280;43392;50.078;13.704;2023-05-25T00:44:15;97561.66;;;8.75;71.40
56894;BME280;43392;50.078;13.704;2023-05-25T00:46:47;97559.81;;;8.75;71.53
56894;BME280;43392;50.078;13.704;2023-05-25T00:49:16;97560.06;;;8.74;71.50
56894;BME280;43392;50.078;13.704;2023-05-25T00:51:45;97561.94;;;8.73;71.31
56894;BME280;43392;50.078;13.704;2023-05-25T00:54:12;97550.69;;;8.71;71.37
56894;BME280;43392;50.078;13.704;2023-05-25T00:56:43;97558.63;;;8.66;71.32
56894;BME280;43392;50.078;13.704;2023-05-25T00:59:26;97563.91;;;8.61;71.81
56894;BME280;43392;50.078;13.704;2023-05-25T01:01:55;97562.28;;;8.60;71.78
56894;BME280;43392;50.078;13.704;2023-05-25T01:04:24;97568.22;;;8.62;71.79
56894;BME280;43392;50.078;13.704;2023-05-25T01:06:55;97583.66;;;8.60;72.10
56894;BME280;43392;50.078;13.704;2023-05-25T01:09:26;97576.16;;;8.57;71.96
56894;BME280;43392;50.078;13.704;2023-05-25T01:11:54;97569.38;;;8.49;72.61
56894;BME280;43392;50.078;13.704;2023-05-25T01:14:21;97580.38;;;8.53;72.44
56894;BME280;43392;50.078;13.704;2023-05-25T01:16:49;97585.97;;;8.51;72.47
56894;BME280;43392;50.078;13.704;2023-05-25T01:19:16;97575.53;;;8.50;72.45
56894;BME280;43392;50.078;13.704;2023-05-25T01:21:46;97574.66;;;8.44;72.60
56894;BME280;43392;50.078;13.704;2023-05-25T01:24:19;97579.94;;;8.39;72.62
56894;BME280;43392;50.078;13.704;2023-05-25T01:26:54;97583.09;;;8.36;72.64
56894;BME280;43392;50.078;13.704;2023-05-25T01:29:25;97585.69;;;8.31;72.89
56894;BME280;43392;50.078;13.704;2023-05-25T01:31:52;97585.19;;;8.34;72.85
56894;BME280;43392;50.078;13.704;2023-05-25T01:34:19;97585.47;;;8.33;72.81
56894;BME280;43392;50.078;13.704;2023-05-25T01:36:48;97594.50;;;8.32;72.92
56894;BME280;43392;50.078;13.704;2023-05-25T01:39:15;97594.50;;;8.32;73.02
56894;BME280;43392;50.078;13.704;2023-05-25T01:41:42;97599.59;;;8.33;72.71
56894;BME280;43392;50.078;13.704;2023-05-25T01:44:09;97587.31;;;8.32;72.88
56894;BME280;43392;50.078;13.704;2023-05-25T01:46:37;97591.84;;;8.32;72.80
56894;BME280;43392;50.078;13.704;2023-05-25T01:49:11;97598.47;;;8.29;73.03
56894;BME280;43392;50.078;13.704;2023-05-25T01:51:52;97597.09;;;8.27;72.80
56894;BME280;43392;50.078;13.704;2023-05-25T01:54:29;97601.84;;;8.25;73.12
56894;BME280;43392;50.078;13.704;2023-05-25T01:57:00;97596.19;;;8.21;73.23
56894;BME280;43392;50.078;13.704;2023-05-25T01:59:30;97596.34;;;8.15;73.07
56894;BME280;43392;50.078;13.704;2023-05-25T02:01:58;97593.59;;;8.10;73.20
56894;BME280;43392;50.078;13.704;2023-05-25T02:04:26;97597.81;;;8.06;73.00
56894;BME280;43392;50.078;13.704;2023-05-25T02:06:55;97584.97;;;8.02;73.21
56894;BME280;43392;50.078;13.704;2023-05-25T02:09:22;97603.09;;;8.00;73.12
56894;BME280;43392;50.078;13.704;2023-05-25T02:11:48;97602.53;;;7.98;73.28
56894;BME280;43392;50.078;13.704;2023-05-25T02:14:15;97599.50;;;7.95;73.34
56894;BME280;43392;50.078;13.704;2023-05-25T02:16:42;97607.44;;;7.90;73.61
56894;BME280;43392;50.078;13.704;2023-05-25T02:19:10;97610.28;;;7.83;73.83
56894;BME280;43392;50.078;13.704;2023-05-25T02:21:39;97615.06;;;7.81;73.91
56894;BME280;43392;50.078;13.704;2023-05-25T02:24:07;97605.09;;;7.77;74.11
56894;BME280;43392;50.078;13.704;2023-05-25T02:26:34;97611.47;;;7.76;74.26
56894;BME280;43392;50.078;13.704;2023-05-25T02:29:01;97618.69;;;7.75;74.23
56894;BME280;43392;50.078;13.704;2023-05-25T02:31:28;97611.75;;;7.74;74.39
56894;BME280;43392;50.078;13.704;2023-05-25T02:33:54;97617.06;;;7.74;74.51
56894;BME280;43392;50.078;13.704;2023-05-25T02:36:22;97620.78;;;7.73;74.60
56894;BME280;43392;50.078;13.704;2023-05-25T02:38:49;97611.47;;;7.76;74.71
56894;BME280;43392;50.078;13.704;2023-05-25T02:41:18;97612.88;;;7.78;74.74
56894;BME280;43392;50.078;13.704;2023-05-25T02:43:45;97610.44;;;7.77;74.65
56894;BME280;43392;50.078;13.704;2023-05-25T02:46:12;97606.41;;;7.74;74.82
56894;BME280;43392;50.078;13.704;2023-05-25T02:48:39;97612.88;;;7.78;74.62
56894;BME280;43392;50.078;13.704;2023-05-25T02:51:06;97612.03;;;7.78;74.38
56894;BME280;43392;50.078;13.704;2023-05-25T02:53:33;97610.66;;;7.75;74.20
56894;BME280;43392;50.078;13.704;2023-05-25T02:56:00;97617.28;;;7.73;74.36
56894;BME280;43392;50.078;13.704;2023-05-25T02:58:29;97617.81;;;7.70;73.97
56894;BME280;43392;50.078;13.704;2023-05-25T03:00:56;97621.09;;;7.60;74.34
56894;BME280;43392;50.078;13.704;2023-05-25T03:03:24;97628.69;;;7.52;74.67
56894;BME280;43392;50.078;13.704;2023-05-25T03:05:51;97629.66;;;7.46;75.12
56894;BME280;43392;50.078;13.704;2023-05-25T03:08:17;97622.09;;;7.43;75.13
56894;BME280;43392;50.078;13.704;2023-05-25T03:10:44;97636.75;;;7.40;74.81
56894;BME280;43392;50.078;13.704;2023-05-25T03:13:11;97632.94;;;7.36;74.96
56894;BME280;43392;50.078;13.704;2023-05-25T03:15:39;97628.63;;;7.35;75.10
56894;BME280;43392;50.078;13.704;2023-05-25T03:18:05;97633.97;;;7.35;75.36
56894;BME280;43392;50.078;13.704;2023-05-25T03:20:32;97639.06;;;7.36;75.07
56894;BME280;43392;50.078;13.704;2023-05-25T03:22:59;97631.88;;;7.37;75.04
56894;BME280;43392;50.078;13.704;2023-05-25T03:25:25;97630.84;;;7.38;75.24
56894;BME280;43392;50.078;13.704;2023-05-25T03:27:52;97637.56;;;7.41;74.98
56894;BME280;43392;50.078;13.704;2023-05-25T03:30:19;97621.53;;;7.41;74.91
56894;BME280;43392;50.078;13.704;2023-05-25T03:32:47;97622.09;;;7.43;74.81
56894;BME280;43392;50.078;13.704;2023-05-25T03:35:14;97627.53;;;7.48;74.99
56894;BME280;43392;50.078;13.704;2023-05-25T03:37:40;97629.50;;;7.52;74.70
56894;BME280;43392;50.078;13.704;2023-05-25T03:40:07;97635.13;;;7.56;74.89
56894;BME280;43392;50.078;13.704;2023-05-25T03:42:36;97627.72;;;7.58;75.46
56894;BME280;43392;50.078;13.704;2023-05-25T03:45:04;97629.13;;;7.60;75.00
56894;BME280;43392;50.078;13.704;2023-05-25T03:47:30;97630.50;;;7.63;74.77
56894;BME280;43392;50.078;13.704;2023-05-25T03:49:58;97626.03;;;7.68;74.78
56894;BME280;43392;50.078;13.704;2023-05-25T03:52:25;97633.22;;;7.68;74.53
56894;BME280;43392;50.078;13.704;2023-05-25T03:54:52;97638.72;;;7.61;74.54
56894;BME280;43392;50.078;13.704;2023-05-25T03:57:18;97638.31;;;7.53;74.64
56894;BME280;43392;50.078;13.704;2023-05-25T03:59:45;97641.25;;;7.40;74.42
56894;BME280;43392;50.078;13.704;2023-05-25T04:02:11;97648.50;;;7.27;74.35
56894;BME280;43392;50.078;13.704;2023-05-25T04:04:38;97650.75;;;7.19;74.95
56894;BME280;43392;50.078;13.704;2023-05-25T04:07:07;97644.13;;;7.10;75.20
56894;BME280;43392;50.078;13.704;2023-05-25T04:09:33;97648.09;;;7.07;75.21
56894;BME280;43392;50.078;13.704;2023-05-25T04:12:00;97643.00;;;7.06;75.62
56894;BME280;43392;50.078;13.704;2023-05-25T04:14:27;97647.72;;;7.15;75.46
56894;BME280;43392;50.078;13.704;2023-05-25T04:16:54;97648.66;;;7.21;75.36
56894;BME280;43392;50.078;13.704;2023-05-25T04:19:20;97647.34;;;7.23;75.18
56894;BME280;43392;50.078;13.704;2023-05-25T04:21:47;97653.38;;;7.30;75.23
56894;BME280;43392;50.078;13.704;2023-05-25T04:24:15;97654.84;;;7.38;75.04
56894;BME280;43392;50.078;13.704;2023-05-25T04:26:41;97660.84;;;7.45;74.95
56894;BME280;43392;50.078;13.704;2023-05-25T04:29:10;97653.50;;;7.52;74.57
56894;BME280;43392;50.078;13.704;2023-05-25T04:31:37;97660.88;;;7.62;74.85
56894;BME280;43392;50.078;13.704;2023-05-25T04:34:05;97665.34;;;7.73;74.92
56894;BME280;43392;50.078;13.704;2023-05-25T04:36:35;97660.75;;;7.85;74.23
56894;BME280;43392;50.078;13.704;2023-05-25T04:39:03;97667.09;;;7.95;74.14
56894;BME280;43392;50.078;13.704;2023-05-25T04:41:31;97660.84;;;8.07;74.07
56894;BME280;43392;50.078;13.704;2023-05-25T04:43:58;97654.22;;;8.09;74.06
56894;BME280;43392;50.078;13.704;2023-05-25T04:46:25;97657.63;;;8.21;76.75
56894;BME280;43392;50.078;13.704;2023-05-25T04:48:52;97659.66;;;9.02;79.15
56894;BME280;43392;50.078;13.704;2023-05-25T04:51:18;97655.63;;;9.70;75.55
56894;BME280;43392;50.078;13.704;2023-05-25T04:53:47;97651.41;;;10.37;73.87
56894;BME280;43392;50.078;13.704;2023-05-25T04:56:13;97650.69;;;10.89;68.42
56894;BME280;43392;50.078;13.704;2023-05-25T04:58:42;97653.53;;;10.72;66.43
56894;BME280;43392;50.078;13.704;2023-05-25T05:01:09;97653.47;;;10.25;66.84
56894;BME280;43392;50.078;13.704;2023-05-25T05:03:35;97650.91;;;9.82;68.13
56894;BME280;43392;50.078;13.704;2023-05-25T05:06:02;97648.81;;;9.35;69.73
56894;BME280;43392;50.078;13.704;2023-05-25T05:08:29;97659.72;;;9.07;71.28
56894;BME280;43392;50.078;13.704;2023-05-25T05:10:56;97663.16;;;9.03;71.69
56894;BME280;43392;50.078;13.704;2023-05-25T05:13:22;97657.31;;;9.06;72.12
56894;BME280;43392;50.078;13.704;2023-05-25T05:15:50;97672.03;;;9.08;71.73
56894;BME280;43392;50.078;13.704;2023-05-25T05:18:18;97675.50;;;9.09;71.90
56894;BME280;43392;50.078;13.704;2023-05-25T05:20:44;97677.56;;;9.02;72.01
56894;BME280;43392;50.078;13.704;2023-05-25T05:23:12;97674.97;;;9.07;71.86
56894;BME280;43392;50.078;13.704;2023-05-25T05:25:38;97680.00;;;9.03;72.28
56894;BME280;43392;50.078;13.704;2023-05-25T05:28:05;97677.38;;;9.08;71.82
56894;BME280;43392;50.078;13.704;2023-05-25T05:30:32;97683.53;;;9.09;72.32
56894;BME280;43392;50.078;13.704;2023-05-25T05:33:00;97680.94;;;9.14;72.52
56894;BME280;43392;50.078;13.704;2023-05-25T05:35:27;97692.09;;;9.27;72.49
56894;BME280;43392;50.078;13.704;2023-05-25T05:37:54;97688.47;;;9.39;72.39
56894;BME280;43392;50.078;13.704;2023-05-25T05:40:21;97688.53;;;9.44;72.36
56894;BME280;43392;50.078;13.704;2023-05-25T05:42:47;97694.56;;;9.56;72.39
56894;BME280;43392;50.078;13.704;2023-05-25T05:45:14;97695.28;;;9.73;72.52
56894;BME280;43392;50.078;13.704;2023-05-25T05:47:41;97698.84;;;9.78;71.12
56894;BME280;43392;50.078;13.704;2023-05-25T05:50:09;97698.53;;;9.75;70.88
56894;BME280;43392;50.078;13.704;2023-05-25T05:52:36;97699.78;;;9.67;71.17
56894;BME280;43392;50.078;13.704;2023-05-25T05:55:03;97696.84;;;9.69;71.22
56894;BME280;43392;50.078;13.704;2023-05-25T05:57:30;97699.00;;;9.72;70.68
56894;BME280;43392;50.078;13.704;2023-05-25T05:59:57;97698.94;;;9.67;70.37
56894;BME280;43392;50.078;13.704;2023-05-25T06:02:23;97707.38;;;9.75;70.79
56894;BME280;43392;50.078;13.704;2023-05-25T06:04:50;97712.38;;;9.93;71.20
56894;BME280;43392;50.078;13.704;2023-05-25T06:07:19;97713.56;;;10.08;70.32
56894;BME280;43392;50.078;13.704;2023-05-25T06:09:46;97714.25;;;10.20;70.81
56894;BME280;43392;50.078;13.704;2023-05-25T06:12:13;97722.44;;;10.35;70.45
56894;BME280;43392;50.078;13.704;2023-05-25T06:14:39;97716.91;;;10.46;70.08
56894;BME280;43392;50.078;13.704;2023-05-25T06:17:06;97712.94;;;10.54;70.04
56894;BME280;43392;50.078;13.704;2023-05-25T06:19:32;97715.47;;;10.65;68.93
56894;BME280;43392;50.078;13.704;2023-05-25T06:21:59;97718.78;;;10.78;68.76
56894;BME280;43392;50.078;13.704;2023-05-25T06:24:27;97718.81;;;10.88;69.26
56894;BME280;43392;50.078;13.704;2023-05-25T06:26:55;97707.34;;;10.97;68.61
56894;BME280;43392;50.078;13.704;2023-05-25T06:29:21;97716.81;;;11.10;68.68
56894;BME280;43392;50.078;13.704;2023-05-25T06:31:48;97713.34;;;11.14;67.77
56894;BME280;43392;50.078;13.704;2023-05-25T06:34:15;97716.91;;;11.25;68.12
56894;BME280;43392;50.078;13.704;2023-05-25T06:36:41;97713.69;;;11.28;67.44
56894;BME280;43392;50.078;13.704;2023-05-25T06:39:08;97704.03;;;11.32;67.50
56894;BME280;43392;50.078;13.704;2023-05-25T06:41:37;97699.44;;;11.22;67.09
56894;BME280;43392;50.078;13.704;2023-05-25T06:44:04;97705.09;;;11.26;67.93
56894;BME280;43392;50.078;13.704;2023-05-25T06:46:31;97705.66;;;11.33;67.30
56894;BME280;43392;50.078;13.704;2023-05-25T06:48:58;97705.16;;;11.46;67.80
56894;BME280;43392;50.078;13.704;2023-05-25T06:51:25;97705.50;;;11.55;67.94
56894;BME280;43392;50.078;13.704;2023-05-25T06:53:52;97701.72;;;11.56;66.26
56894;BME280;43392;50.078;13.704;2023-05-25T06:56:18;97706.59;;;11.64;66.62
56894;BME280;43392;50.078;13.704;2023-05-25T06:58:47;97703.97;;;11.74;66.31
56894;BME280;43392;50.078;13.704;2023-05-25T07:01:13;97708.81;;;11.77;66.63
56894;BME280;43392;50.078;13.704;2023-05-25T07:03:40;97694.31;;;11.83;66.34
56894;BME280;43392;50.078;13.704;2023-05-25T07:06:07;97705.91;;;11.93;65.54
56894;BME280;43392;50.078;13.704;2023-05-25T07:08:36;97710.22;;;12.05;63.97
56894;BME280;43392;50.078;13.704;2023-05-25T07:11:03;97707.81;;;12.08;63.71
56894;BME280;43392;50.078;13.704;2023-05-25T07:13:30;97703.00;;;12.15;63.42
56894;BME280;43392;50.078;13.704;2023-05-25T07:15:58;97703.53;;;12.22;62.09
56894;BME280;43392;50.078;13.704;2023-05-25T07:18:24;97705.41;;;12.27;62.47
56894;BME280;43392;50.078;13.704;2023-05-25T07:20:51;97708.09;;;12.32;61.83
56894;BME280;43392;50.078;13.704;2023-05-25T07:23:18;97707.28;;;12.31;62.01
56894;BME280;43392;50.078;13.704;2023-05-25T07:25:45;97699.53;;;12.40;62.40
56894;BME280;43392;50.078;13.704;2023-05-25T07:28:11;97708.13;;;12.47;61.61
56894;BME280;43392;50.078;13.704;2023-05-25T07:30:38;97704.34;;;12.53;61.13
56894;BME280;43392;50.078;13.704;2023-05-25T07:33:07;97705.16;;;12.58;60.68
56894;BME280;43392;50.078;13.704;2023-05-25T07:35:33;97706.75;;;12.64;61.63
56894;BME280;43392;50.078;13.704;2023-05-25T07:38:01;97709.44;;;12.75;61.69
56894;BME280;43392;50.078;13.704;2023-05-25T07:40:29;97713.47;;;12.82;61.95
56894;BME280;43392;50.078;13.704;2023-05-25T07:42:55;97710.25;;;12.85;60.44
56894;BME280;43392;50.078;13.704;2023-05-25T07:45:22;97712.41;;;12.88;60.44
56894;BME280;43392;50.078;13.704;2023-05-25T07:47:49;97706.44;;;12.96;61.03
56894;BME280;43392;50.078;13.704;2023-05-25T07:50:17;97713.16;;;13.04;59.41
56894;BME280;43392;50.078;13.704;2023-05-25T07:52:43;97720.97;;;13.15;59.63
56894;BME280;43392;50.078;13.704;2023-05-25T07:55:10;97720.72;;;13.17;58.35
56894;BME280;43392;50.078;13.704;2023-05-25T07:57:37;97716.16;;;13.17;58.66
56894;BME280;43392;50.078;13.704;2023-05-25T08:00:04;97733.91;;;13.18;57.71
56894;BME280;43392;50.078;13.704;2023-05-25T08:02:32;97732.56;;;13.21;57.13
56894;BME280;43392;50.078;13.704;2023-05-25T08:04:58;97738.47;;;13.28;58.28
56894;BME280;43392;50.078;13.704;2023-05-25T08:07:30;97738.44;;;13.33;57.27
56894;BME280;43392;50.078;13.704;2023-05-25T08:09:57;97731.19;;;13.34;57.07
56894;BME280;43392;50.078;13.704;2023-05-25T08:12:24;97736.03;;;13.32;57.09
56894;BME280;43392;50.078;13.704;2023-05-25T08:14:50;97740.31;;;13.38;57.17
56894;BME280;43392;50.078;13.704;2023-05-25T08:17:18;97732.50;;;13.41;57.06
56894;BME280;43392;50.078;13.704;2023-05-25T08:19:45;97737.59;;;13.53;57.06
56894;BME280;43392;50.078;13.704;2023-05-25T08:22:11;97734.88;;;13.53;56.58
56894;BME280;43392;50.078;13.704;2023-05-25T08:24:39;97731.13;;;13.54;56.91
56894;BME280;43392;50.078;13.704;2023-05-25T08:27:06;97735.41;;;13.55;56.97
56894;BME280;43392;50.078;13.704;2023-05-25T08:29:32;97738.47;;;13.97;56.86
56894;BME280;43392;50.078;13.704;2023-05-25T08:31:59;97726.44;;;14.23;54.53
56894;BME280;43392;50.078;13.704;2023-05-25T08:34:25;97725.81;;;14.36;54.43
56894;BME280;43392;50.078;13.704;2023-05-25T08:36:53;97736.91;;;14.35;54.84
56894;BME280;43392;50.078;13.704;2023-05-25T08:39:20;97726.75;;;14.17;53.51
56894;BME280;43392;50.078;13.704;2023-05-25T08:41:49;97728.69;;;14.11;54.69
56894;BME280;43392;50.078;13.704;2023-05-25T08:44:16;97727.31;;;14.14;55.06
56894;BME280;43392;50.078;13.704;2023-05-25T08:46:45;97728.94;;;14.10;54.26
56894;BME280;43392;50.078;13.704;2023-05-25T08:49:13;97734.03;;;14.16;53.96
56894;BME280;43392;50.078;13.704;2023-05-25T08:51:42;97727.81;;;14.21;53.58
56894;BME280;43392;50.078;13.704;2023-05-25T08:54:12;97722.59;;;14.29;53.73
56894;BME280;43392;50.078;13.704;2023-05-25T08:56:46;97728.53;;;14.36;53.70
56894;BME280;43392;50.078;13.704;2023-05-25T08:59:25;97729.28;;;14.47;53.81
56894;BME280;43392;50.078;13.704;2023-05-25T09:02:01;97731.09;;;14.56;53.15
56894;BME280;43392;50.078;13.704;2023-05-25T09:04:33;97727.22;;;14.68;52.86
56894;BME280;43392;50.078;13.704;2023-05-25T09:07:00;97733.34;;;14.78;52.51
56894;BME280;43392;50.078;13.704;2023-05-25T09:09:27;97724.38;;;14.83;51.44
56894;BME280;43392;50.078;13.704;2023-05-25T09:11:55;97724.84;;;14.90;51.36
56894;BME280;43392;50.078;13.704;2023-05-25T09:14:24;97730.00;;;14.91;50.45
56894;BME280;43392;50.078;13.704;2023-05-25T09:16:51;97736.94;;;14.97;49.44
56894;BME280;43392;50.078;13.704;2023-05-25T09:19:18;97737.19;;;15.01;49.77
56894;BME280;43392;50.078;13.704;2023-05-25T09:21:45;97733.16;;;14.98;49.48
56894;BME280;43392;50.078;13.704;2023-05-25T09:24:12;97738.56;;;14.98;49.74
56894;BME280;43392;50.078;13.704;2023-05-25T09:26:39;97733.72;;;14.95;49.61
56894;BME280;43392;50.078;13.704;2023-05-25T09:29:08;97727.63;;;14.85;47.48
56894;BME280;43392;50.078;13.704;2023-05-25T09:31:36;97735.09;;;14.93;49.57
56894;BME280;43392;50.078;13.704;2023-05-25T09:34:10;97735.81;;;15.03;49.07
56894;BME280;43392;50.078;13.704;2023-05-25T09:36:37;97727.63;;;15.13;49.35
56894;BME280;43392;50.078;13.704;2023-05-25T09:39:07;97723.19;;;15.22;48.95
56894;BME280;43392;50.078;13.704;2023-05-25T09:41:33;97731.47;;;15.31;48.57
56894;BME280;43392;50.078;13.704;2023-05-25T09:44:00;97735.22;;;15.35;49.41
56894;BME280;43392;50.078;13.704;2023-05-25T09:46:30;97717.28;;;15.44;49.71
56894;BME280;43392;50.078;13.704;2023-05-25T09:49:01;97731.28;;;15.51;48.07
56894;BME280;43392;50.078;13.704;2023-05-25T09:51:28;97729.59;;;15.55;47.98
56894;BME280;43392;50.078;13.704;2023-05-25T09:53:57;97733.41;;;15.54;49.33
56894;BME280;43392;50.078;13.704;2023-05-25T09:56:25;97726.78;;;15.65;49.53
56894;BME280;43392;50.078;13.704;2023-05-25T09:58:52;97724.25;;;15.74;47.85
56894;BME280;43392;50.078;13.704;2023-05-25T10:01:18;97727.94;;;15.83;47.78
56894;BME280;43392;50.078;13.704;2023-05-25T10:03:45;97730.06;;;15.86;46.24
56894;BME280;43392;50.078;13.704;2023-05-25T10:06:14;97728.06;;;15.91;46.72
56894;BME280;43392;50.078;13.704;2023-05-25T10:08:42;97729.38;;;15.94;47.09
56894;BME280;43392;50.078;13.704;2023-05-25T10:11:11;97718.75;;;16.03;46.74
56894;BME280;43392;50.078;13.704;2023-05-25T10:13:39;97723.91;;;15.99;45.45
56894;BME280;43392;50.078;13.704;2023-05-25T10:16:08;97719.63;;;15.98;45.70
56894;BME280;43392;50.078;13.704;2023-05-25T10:18:39;97712.75;;;16.06;46.13
56894;BME280;43392;50.078;13.704;2023-05-25T10:21:09;97716.41;;;16.15;46.98
56894;BME280;43392;50.078;13.704;2023-05-25T10:23:43;97720.00;;;16.29;46.83
56894;BME280;43392;50.078;13.704;2023-05-25T10:26:12;97722.03;;;16.37;46.34
56894;BME280;43392;50.078;13.704;2023-05-25T10:28:43;97717.28;;;16.29;45.90
56894;BME280;43392;50.078;13.704;2023-05-25T10:31:11;97712.72;;;16.43;45.83
56894;BME280;43392;50.078;13.704;2023-05-25T10:33:39;97708.94;;;16.44;44.06
56894;BME280;43392;50.078;13.704;2023-05-25T10:36:07;97702.63;;;16.48;44.75
56894;BME280;43392;50.078;13.704;2023-05-25T10:38:40;97705.00;;;16.55;45.12
56894;BME280;43392;50.078;13.704;2023-05-25T10:41:10;97704.31;;;16.63;44.63
56894;BME280;43392;50.078;13.704;2023-05-25T10:43:37;97711.25;;;16.69;44.77
56894;BME280;43392;50.078;13.704;2023-05-25T10:46:05;97705.47;;;16.76;45.50
56894;BME280;43392;50.078;13.704;2023-05-25T10:48:35;97702.88;;;16.84;45.24
56894;BME280;43392;50.078;13.704;2023-05-25T10:51:03;97697.69;;;16.88;44.39
56894;BME280;43392;50.078;13.704;2023-05-25T10:53:29;97705.91;;;16.96;44.51
56894;BME280;43392;50.078;13.704;2023-05-25T10:56:02;97700.72;;;17.13;44.04
56894;BME280;43392;50.078;13.704;2023-05-25T10:58:29;97699.09;;;17.12;41.83
56894;BME280;43392;50.078;13.704;2023-05-25T11:00:57;97696.31;;;17.17;43.81
56894;BME280;43392;50.078;13.704;2023-05-25T11:03:49;97701.84;;;17.26;44.95
56894;BME280;43392;50.078;13.704;2023-05-25T11:06:17;97687.09;;;17.32;44.47
56894;BME280;43392;50.078;13.704;2023-05-25T11:08:50;97691.91;;;17.35;43.37
56894;BME280;43392;50.078;13.704;2023-05-25T11:11:18;97688.19;;;17.45;42.83
56894;BME280;43392;50.078;13.704;2023-05-25T11:13:45;97693.22;;;17.51;41.93
56894;BME280;43392;50.078;13.704;2023-05-25T11:16:18;97694.44;;;17.45;41.38
56894;BME280;43392;50.078;13.704;2023-05-25T11:18:50;97686.94;;;17.56;41.58
56894;BME280;43392;50.078;13.704;2023-05-25T11:21:22;97687.00;;;17.64;41.58
56894;BME280;43392;50.078;13.704;2023-05-25T11:23:53;97685.50;;;17.72;41.71
56894;BME280;43392;50.078;13.704;2023-05-25T11:26:23;97686.59;;;17.71;40.80
56894;BME280;43392;50.078;13.704;2023-05-25T11:28:51;97685.69;;;17.75;40.66
56894;BME280;43392;50.078;13.704;2023-05-25T11:31:24;97686.50;;;17.76;40.84
56894;BME280;43392;50.078;13.704;2023-05-25T11:33:54;97673.75;;;17.76;40.20
56894;BME280;43392;50.078;13.704;2023-05-25T11:36:23;97672.72;;;17.86;39.81
56894;BME280;43392;50.078;13.704;2023-05-25T11:38:50;97672.56;;;18.05;40.31
56894;BME280;43392;50.078;13.704;2023-05-25T11:41:18;97673.25;;;18.10;39.59
56894;BME280;43392;50.078;13.704;2023-05-25T11:43:47;97672.44;;;18.10;39.53
56894;BME280;43392;50.078;13.704;2023-05-25T11:46:14;97663.22;;;18.11;39.78
56894;BME280;43392;50.078;13.704;2023-05-25T11:48:44;97665.94;;;18.11;39.26
56894;BME280;43392;50.078;13.704;2023-05-25T11:51:11;97647.19;;;18.23;40.02
56894;BME280;43392;50.078;13.704;2023-05-25T11:53:41;97656.19;;;18.32;40.68
56894;BME280;43392;50.078;13.704;2023-05-25T11:56:09;97648.91;;;18.41;40.21
56894;BME280;43392;50.078;13.704;2023-05-25T11:58:36;97654.84;;;18.43;39.53
56894;BME280;43392;50.078;13.704;2023-05-25T12:01:15;97653.44;;;18.45;38.79
56894;BME280;43392;50.078;13.704;2023-05-25T12:03:43;97657.97;;;18.50;38.18
56894;BME280;43392;50.078;13.704;2023-05-25T12:06:22;97652.09;;;18.57;37.94
56894;BME280;43392;50.078;13.704;2023-05-25T12:08:50;97658.50;;;18.61;38.15
56894;BME280;43392;50.078;13.704;2023-05-25T12:11:17;97657.88;;;18.64;36.67
56894;BME280;43392;50.078;13.704;2023-05-25T12:13:44;97652.31;;;18.69;38.47
56894;BME280;43392;50.078;13.704;2023-05-25T12:16:11;97651.59;;;18.77;39.02
56894;BME280;43392;50.078;13.704;2023-05-25T12:18:39;97659.09;;;18.80;38.54
56894;BME280;43392;50.078;13.704;2023-05-25T12:21:06;97649.72;;;18.86;39.05
56894;BME280;43392;50.078;13.704;2023-05-25T12:23:34;97657.91;;;18.94;39.09
56894;BME280;43392;50.078;13.704;2023-05-25T12:26:07;97655.19;;;18.94;38.25
56894;BME280;43392;50.078;13.704;2023-05-25T12:28:34;97650.88;;;18.93;38.51
56894;BME280;43392;50.078;13.704;2023-05-25T12:31:18;97645.13;;;18.95;39.35
56894;BME280;43392;50.078;13.704;2023-05-25T12:33:46;97648.19;;;19.02;39.38
56894;BME280;43392;50.078;13.704;2023-05-25T12:36:44;97636.25;;;19.11;39.02
56894;BME280;43392;50.078;13.704;2023-05-25T12:39:13;97641.59;;;19.25;39.23
56894;BME280;43392;50.078;13.704;2023-05-25T12:41:47;97632.78;;;19.28;37.69
56894;BME280;43392;50.078;13.704;2023-05-25T12:44:24;97642.22;;;19.22;37.03
56894;BME280;43392;50.078;13.704;2023-05-25T12:46:52;97636.09;;;19.16;37.92
56894;BME280;43392;50.078;13.704;2023-05-25T12:49:28;97635.16;;;19.21;38.10
56894;BME280;43392;50.078;13.704;2023-05-25T12:51:56;97637.88;;;19.21;37.45
56894;BME280;43392;50.078;13.704;2023-05-25T12:54:33;97631.16;;;19.18;37.03
56894;BME280;43392;50.078;13.704;2023-05-25T12:57:00;97638.00;;;19.16;38.43
56894;BME280;43392;50.078;13.704;2023-05-25T12:59:28;97633.72;;;19.23;38.32